Time;durP1;ratioP1;P1;durP2;ratioP2;P2;SDS_P1;SDS_P2;PMS_P1;PMS_P2;Temp;Humidity;BMP_temperature;BMP_pressure;BME280_temperature;BME280_humidity;BME280_pressure;Samples;Min_cycle;Max_cycle;Signal;HPM_P1;HPM_P2
2022/07/25 00:02:15;;;;;;;3.28;1.27;;;25.70;52.90;;;;;;5026320;28;20040;-56
2022/07/25 00:04:41;;;;;;;5.63;1.60;;;25.70;52.90;;;;;;5027243;28;20021;-56
2022/07/25 00:07:07;;;;;;;5.32;1.60;;;25.70;52.90;;;;;;5024294;28;20029;-55
2022/07/25 00:09:33;;;;;;;4.38;1.65;;;25.70;53.00;;;;;;5024833;28;20113;-56
2022/07/25 00:11:58;;;;;;;4.63;1.80;;;25.70;53.00;;;;;;5026098;28;20034;-56
2022/07/25 00:14:24;;;;;;;4.78;1.55;;;25.70;54.00;;;;;;5021715;28;20029;-56
2022/07/25 00:16:50;;;;;;;2.30;1.42;;;25.60;54.00;;;;;;5027332;28;20041;-56
2022/07/25 00:19:15;;;;;;;3.85;1.65;;;25.60;52.90;;;;;;5026878;28;20109;-56
2022/07/25 00:21:41;;;;;;;3.70;1.40;;;25.60;52.90;;;;;;5027503;28;20033;-56
2022/07/25 00:24:07;;;;;;;3.85;1.50;;;25.60;52.90;;;;;;5024655;28;20736;-56
2022/07/25 00:26:32;;;;;;;3.15;1.40;;;25.60;53.00;;;;;;5027308;28;20449;-56
2022/07/25 00:28:58;;;;;;;3.33;1.50;;;25.60;53.00;;;;;;5025402;28;20104;-56
2022/07/25 00:31:23;;;;;;;3.60;1.50;;;25.60;53.00;;;;;;5025728;28;20044;-56
2022/07/25 00:33:49;;;;;;;3.15;1.40;;;25.60;53.00;;;;;;5024308;28;20030;-56
2022/07/25 00:36:15;;;;;;;4.32;1.50;;;25.60;53.00;;;;;;5026531;28;20030;-56
2022/07/25 00:38:40;;;;;;;3.88;1.60;;;25.60;53.00;;;;;;5024080;28;20048;-56
2022/07/25 00:41:06;;;;;;;3.65;1.40;;;25.60;53.00;;;;;;5025592;28;20040;-55
2022/07/25 00:43:32;;;;;;;2.63;1.40;;;25.60;53.00;;;;;;5025993;28;20021;-55
2022/07/25 00:45:57;;;;;;;4.18;1.52;;;25.60;53.10;;;;;;5027796;28;20036;-55
2022/07/25 00:48:24;;;;;;;4.88;1.80;;;25.60;53.10;;;;;;5025821;28;20018;-56
2022/07/25 00:50:50;;;;;;;5.35;1.58;;;25.60;53.00;;;;;;5025442;28;20140;-56
2022/07/25 00:53:15;;;;;;;2.53;1.30;;;25.60;53.10;;;;;;5026615;28;20096;-55
2022/07/25 00:55:41;;;;;;;4.63;1.75;;;25.50;53.10;;;;;;5026141;28;20059;-56
2022/07/25 00:58:07;;;;;;;3.10;1.30;;;25.60;53.10;;;;;;5056384;28;20034;-56
2022/07/25 01:00:32;;;;;;;2.47;1.20;;;25.50;53.10;;;;;;5022396;28;20082;-55
2022/07/25 01:02:58;;;;;;;4.13;1.45;;;25.50;53.10;;;;;;5027717;28;20108;-56
2022/07/25 01:05:24;;;;;;;3.22;1.48;;;25.50;53.20;;;;;;5025016;28;20069;-56
2022/07/25 01:07:50;;;;;;;2.35;1.30;;;25.50;53.20;;;;;;5024331;28;20481;-55
2022/07/25 01:10:15;;;;;;;3.22;1.40;;;25.50;53.10;;;;;;5026423;28;20103;-56
2022/07/25 01:12:49;;;;;;;4.07;1.30;;;25.50;53.10;;;;;;5023566;28;20018;-56
2022/07/25 01:15:19;;;;;;;4.50;1.60;;;25.50;53.20;;;;;;5025774;28;20171;-56
2022/07/25 01:17:44;;;;;;;2.80;1.33;;;25.50;53.20;;;;;;5022827;28;20486;-55
2022/07/25 01:20:16;;;;;;;3.00;1.30;;;25.50;53.20;;;;;;5025511;28;20078;-56
2022/07/25 01:22:42;;;;;;;4.13;1.50;;;25.50;53.30;;;;;;5025417;28;20079;-57
2022/07/25 01:25:08;;;;;;;3.17;1.35;;;25.50;53.30;;;;;;5024960;28;20386;-56
2022/07/25 01:27:33;;;;;;;2.72;1.40;;;25.40;53.10;;;;;;5024431;28;20018;-56
2022/07/25 01:29:59;;;;;;;4.15;1.58;;;25.40;53.10;;;;;;5024083;28;20029;-55
2022/07/25 01:32:24;;;;;;;3.05;1.30;;;25.50;53.20;;;;;;5025856;28;20036;-56
2022/07/25 01:34:50;;;;;;;3.00;1.30;;;25.50;53.30;;;;;;5025601;28;20112;-55
2022/07/25 01:37:16;;;;;;;2.38;1.30;;;25.40;53.30;;;;;;5027221;28;20432;-56
2022/07/25 01:39:41;;;;;;;3.50;1.40;;;25.40;53.30;;;;;;5026157;28;20553;-56
2022/07/25 01:42:07;;;;;;;4.60;1.73;;;25.40;53.20;;;;;;5025344;28;20371;-56
2022/07/25 01:44:32;;;;;;;3.53;1.35;;;25.40;53.30;;;;;;5023062;28;20465;-56
2022/07/25 01:46:58;;;;;;;3.08;1.23;;;25.40;53.30;;;;;;5025367;28;20520;-56
2022/07/25 01:49:25;;;;;;;2.95;1.40;;;25.40;53.30;;;;;;5026172;28;20387;-56
2022/07/25 01:51:51;;;;;;;2.78;1.40;;;25.40;53.30;;;;;;5024473;28;20053;-56
2022/07/25 01:54:17;;;;;;;3.80;1.40;;;25.40;53.30;;;;;;5023733;28;20021;-56
2022/07/25 01:56:46;;;;;;;3.65;1.58;;;25.40;53.30;;;;;;5025501;28;20376;-56
2022/07/25 01:59:11;;;;;;;4.18;1.27;;;25.40;53.30;;;;;;5026489;28;20017;-56
2022/07/25 02:01:37;;;;;;;3.30;1.50;;;25.40;53.30;;;;;;5022983;28;20051;-56
2022/07/25 02:04:03;;;;;;;4.05;1.70;;;25.40;53.30;;;;;;5025854;28;20037;-56
2022/07/25 02:06:28;;;;;;;2.35;1.33;;;25.40;53.40;;;;;;5024349;28;20036;-56
2022/07/25 02:08:54;;;;;;;4.30;1.42;;;25.40;53.40;;;;;;5024383;28;20026;-56
2022/07/25 02:11:19;;;;;;;2.22;1.40;;;25.40;53.40;;;;;;5024903;28;20048;-56
2022/07/25 02:13:45;;;;;;;3.28;1.40;;;25.30;53.30;;;;;;5026422;28;20104;-56
2022/07/25 02:16:11;;;;;;;4.97;1.58;;;25.30;53.30;;;;;;5022795;28;20133;-56
2022/07/25 02:18:37;;;;;;;3.20;1.40;;;25.30;53.40;;;;;;5023746;28;20076;-56
2022/07/25 02:21:06;;;;;;;2.50;1.33;;;25.30;53.40;;;;;;5024551;28;20088;-56
2022/07/25 02:23:32;;;;;;;2.80;1.27;;;25.30;53.40;;;;;;5024212;28;20363;-56
2022/07/25 02:25:57;;;;;;;2.60;1.45;;;25.30;53.40;;;;;;5024320;28;20541;-56
2022/07/25 02:28:23;;;;;;;2.75;1.30;;;25.30;53.40;;;;;;5023862;28;20100;-56
2022/07/25 02:30:49;;;;;;;2.35;1.30;;;25.30;53.40;;;;;;5023229;28;20139;-56
2022/07/25 02:33:14;;;;;;;3.05;1.40;;;25.30;53.50;;;;;;5026293;28;20577;-55
2022/07/25 02:35:40;;;;;;;2.45;1.30;;;25.30;53.50;;;;;;5027188;28;20035;-56
2022/07/25 02:38:06;;;;;;;4.30;1.50;;;25.30;53.50;;;;;;5026324;28;20029;-56
2022/07/25 02:40:31;;;;;;;2.28;1.30;;;25.30;53.50;;;;;;5027574;28;20455;-56
2022/07/25 02:42:57;;;;;;;3.30;1.40;;;25.30;53.60;;;;;;5029293;28;20402;-56
2022/07/25 02:45:23;;;;;;;2.88;1.30;;;25.30;53.50;;;;;;5028936;28;20469;-56
2022/07/25 02:47:48;;;;;;;3.45;1.48;;;25.20;53.50;;;;;;5029657;28;20144;-55
2022/07/25 02:50:14;;;;;;;2.90;1.40;;;25.20;53.50;;;;;;5028446;28;20056;-56
2022/07/25 02:52:40;;;;;;;3.13;1.50;;;25.20;53.50;;;;;;5028379;28;20112;-55
2022/07/25 02:55:06;;;;;;;3.75;1.63;;;25.20;53.50;;;;;;5027600;28;20026;-56
2022/07/25 02:57:31;;;;;;;3.40;1.30;;;25.20;53.50;;;;;;5027110;28;20569;-56
2022/07/25 02:59:57;;;;;;;1.90;1.20;;;25.20;53.50;;;;;;5029094;28;20113;-56
2022/07/25 03:02:23;;;;;;;2.72;1.30;;;25.20;53.50;;;;;;5028768;28;20128;-56
2022/07/25 03:04:48;;;;;;;2.65;1.30;;;25.20;53.60;;;;;;5028507;28;20482;-55
2022/07/25 03:07:14;;;;;;;2.22;1.20;;;25.20;53.60;;;;;;5027578;28;20452;-55
2022/07/25 03:09:40;;;;;;;4.15;1.38;;;25.20;53.50;;;;;;5027363;28;20021;-56
2022/07/25 03:12:05;;;;;;;2.35;1.27;;;25.20;53.50;;;;;;5026753;28;20095;-56
2022/07/25 03:14:31;;;;;;;3.05;1.33;;;25.20;53.60;;;;;;5027441;28;20026;-55
2022/07/25 03:16:56;;;;;;;3.40;1.40;;;25.20;53.70;;;;;;5029438;28;20383;-56
2022/07/25 03:19:22;;;;;;;2.80;1.20;;;25.20;53.60;;;;;;5028378;28;20018;-56
2022/07/25 03:21:48;;;;;;;2.08;1.15;;;25.20;53.60;;;;;;5026615;28;20140;-55
2022/07/25 03:24:13;;;;;;;2.50;1.35;;;25.20;53.60;;;;;;5026943;28;20076;-56
2022/07/25 03:26:39;;;;;;;3.38;1.50;;;25.20;53.60;;;;;;5026428;28;20065;-56
2022/07/25 03:29:05;;;;;;;2.30;1.50;;;25.20;53.70;;;;;;5027578;28;20032;-56
2022/07/25 03:31:30;;;;;;;2.58;1.30;;;25.20;53.70;;;;;;5026454;28;20427;-56
2022/07/25 03:33:56;;;;;;;2.35;1.30;;;25.20;53.60;;;;;;5026449;28;20391;-56
2022/07/25 03:36:22;;;;;;;3.08;1.40;;;25.20;53.70;;;;;;5027501;28;20725;-56
2022/07/25 03:38:47;;;;;;;3.47;1.63;;;25.20;53.70;;;;;;5025421;28;20470;-56
2022/07/25 03:41:13;;;;;;;2.55;1.17;;;25.20;53.70;;;;;;5025909;28;20490;-56
2022/07/25 03:43:39;;;;;;;3.17;1.50;;;25.20;53.70;;;;;;5025756;28;20029;-55
2022/07/25 03:46:04;;;;;;;2.10;1.20;;;25.10;53.60;;;;;;5026885;28;20083;-56
2022/07/25 03:48:30;;;;;;;3.75;1.48;;;25.10;53.60;;;;;;5027628;28;20043;-56
2022/07/25 03:50:56;;;;;;;2.08;1.30;;;25.10;53.60;;;;;;5025363;28;20092;-56
2022/07/25 03:53:22;;;;;;;1.75;1.02;;;25.10;53.60;;;;;;5027513;28;20029;-56
2022/07/25 03:55:47;;;;;;;2.38;1.20;;;25.10;53.70;;;;;;5026341;28;20549;-56
2022/07/25 03:58:13;;;;;;;3.63;1.35;;;25.10;53.60;;;;;;5026125;28;20037;-56
2022/07/25 04:00:39;;;;;;;3.55;1.50;;;25.10;54.70;;;;;;5026823;28;20026;-56
2022/07/25 04:03:05;;;;;;;4.68;1.52;;;25.10;53.60;;;;;;5025963;28;20092;-55
2022/07/25 04:05:31;;;;;;;3.10;1.20;;;25.10;53.60;;;;;;5027160;28;20108;-55
2022/07/25 04:07:56;;;;;;;2.80;1.48;;;25.10;53.70;;;;;;5027318;28;20113;-56
2022/07/25 04:10:22;;;;;;;2.45;1.30;;;25.10;53.60;;;;;;5027748;28;20026;-56
2022/07/25 04:12:48;;;;;;;2.95;1.38;;;25.10;53.70;;;;;;5028309;28;20037;-56
2022/07/25 04:15:14;;;;;;;4.85;1.35;;;25.10;53.70;;;;;;5027705;28;20071;-56
2022/07/25 04:17:39;;;;;;;2.67;1.25;;;25.10;53.70;;;;;;5024951;28;20037;-55
2022/07/25 04:20:08;;;;;;;2.45;1.23;;;25.00;53.70;;;;;;5027835;28;20048;-56
2022/07/25 04:22:34;;;;;;;2.60;1.20;;;25.00;53.70;;;;;;5027528;28;20017;-55
2022/07/25 04:25:00;;;;;;;4.32;1.40;;;25.00;53.80;;;;;;5021493;28;20593;-56
2022/07/25 04:27:26;;;;;;;2.97;1.35;;;25.00;53.70;;;;;;5023990;28;20025;-56
2022/07/25 04:29:51;;;;;;;3.72;1.48;;;25.00;54.70;;;;;;5023969;28;20041;-56
2022/07/25 04:32:18;;;;;;;3.38;1.10;;;25.00;53.70;;;;;;5025164;28;20038;-56
2022/07/25 04:34:44;;;;;;;3.50;1.40;;;25.00;53.80;;;;;;5026129;28;20566;-56
2022/07/25 04:37:09;;;;;;;2.42;1.30;;;25.00;53.80;;;;;;5025570;28;20029;-56
2022/07/25 04:39:37;;;;;;;3.55;1.30;;;25.00;53.80;;;;;;5026054;28;20487;-55
2022/07/25 04:42:05;;;;;;;2.20;1.15;;;25.00;53.80;;;;;;5022371;28;20104;-56
2022/07/25 04:44:31;;;;;;;1.60;1.20;;;25.00;53.80;;;;;;5027202;28;20513;-56
2022/07/25 04:46:57;;;;;;;2.25;1.10;;;25.00;53.90;;;;;;5026771;28;20382;-56
2022/07/25 04:49:22;;;;;;;2.33;1.30;;;25.00;53.80;;;;;;5026269;28;20052;-56
2022/07/25 04:51:48;;;;;;;1.83;1.20;;;24.90;53.80;;;;;;5026271;28;20057;-56
2022/07/25 04:54:15;;;;;;;2.65;1.17;;;25.00;53.80;;;;;;5026388;28;20085;-55
2022/07/25 04:56:42;;;;;;;3.58;1.40;;;25.00;53.80;;;;;;5024073;28;20030;-56
2022/07/25 04:59:08;;;;;;;3.90;1.35;;;25.00;53.90;;;;;;5052349;28;20267;-56
2022/07/25 05:01:35;;;;;;;2.85;1.30;;;25.00;53.90;;;;;;5024994;28;20573;-55
2022/07/25 05:04:00;;;;;;;3.58;1.33;;;25.00;53.90;;;;;;5024424;28;20136;-56
2022/07/25 05:06:26;;;;;;;2.95;1.25;;;24.90;53.80;;;;;;5024865;28;20112;-55
2022/07/25 05:08:51;;;;;;;3.20;1.33;;;24.90;53.90;;;;;;5021630;28;20401;-56
2022/07/25 05:11:17;;;;;;;3.38;1.20;;;24.90;53.80;;;;;;5022361;28;20065;-56
2022/07/25 05:13:43;;;;;;;3.75;1.38;;;24.90;53.90;;;;;;5023317;28;20018;-55
2022/07/25 05:16:09;;;;;;;3.38;1.17;;;25.00;54.00;;;;;;5023350;28;20474;-56
2022/07/25 05:18:34;;;;;;;8.65;1.90;;;24.90;54.00;;;;;;5023040;28;20017;-55
2022/07/25 05:21:00;;;;;;;7.82;1.60;;;24.90;53.90;;;;;;5021615;28;20074;-55
2022/07/25 05:23:26;;;;;;;6.53;1.50;;;24.80;53.90;;;;;;5024845;28;20033;-55
2022/07/25 05:25:51;;;;;;;5.47;1.40;;;24.80;54.00;;;;;;5025892;28;20030;-55
2022/07/25 05:28:17;;;;;;;5.38;1.63;;;24.90;54.00;;;;;;5021762;28;20026;-54
2022/07/25 05:30:43;;;;;;;6.13;1.67;;;24.90;54.10;;;;;;5024204;28;20036;-56
2022/07/25 05:33:08;;;;;;;5.38;1.67;;;24.90;54.10;;;;;;5025510;28;20050;-55
2022/07/25 05:35:34;;;;;;;5.85;1.55;;;24.90;54.30;;;;;;5024069;28;20025;-55
2022/07/25 05:37:59;;;;;;;5.57;1.70;;;24.90;54.40;;;;;;5022162;28;20021;-54
2022/07/25 05:40:25;;;;;;;5.10;1.70;;;24.90;54.30;;;;;;5025881;28;20029;-55
2022/07/25 05:42:51;;;;;;;4.60;1.60;;;24.90;54.40;;;;;;5023967;28;20483;-55
2022/07/25 05:45:16;;;;;;;6.32;1.80;;;24.90;54.40;;;;;;5024586;28;20119;-55
2022/07/25 05:47:42;;;;;;;6.70;1.60;;;24.90;54.50;;;;;;5024685;28;20036;-55
2022/07/25 05:50:08;;;;;;;6.68;1.50;;;24.90;54.50;;;;;;5023559;28;20564;-55
2022/07/25 05:52:34;;;;;;;4.53;1.48;;;24.80;54.40;;;;;;5026026;28;20560;-55
2022/07/25 05:55:00;;;;;;;6.38;1.60;;;24.80;54.40;;;;;;5024628;28;20026;-55
2022/07/25 05:57:26;;;;;;;8.40;1.80;;;24.80;54.40;;;;;;5024666;28;20040;-55
2022/07/25 05:59:51;;;;;;;5.85;1.50;;;24.80;54.40;;;;;;5025893;28;20042;-55
2022/07/25 06:02:17;;;;;;;7.22;1.80;;;24.80;54.50;;;;;;5026061;28;20041;-55
2022/07/25 06:04:43;;;;;;;4.97;1.70;;;24.80;54.50;;;;;;5025091;28;20028;-56
2022/07/25 06:07:09;;;;;;;5.13;1.58;;;24.80;54.50;;;;;;5025541;28;20134;-55
2022/07/25 06:09:35;;;;;;;7.55;1.95;;;24.80;54.60;;;;;;5029196;28;20631;-55
2022/07/25 06:12:00;;;;;;;7.80;1.83;;;24.80;54.60;;;;;;5028875;28;20446;-55
2022/07/25 06:14:26;;;;;;;4.13;1.63;;;24.80;54.50;;;;;;5028324;28;20575;-55
2022/07/25 06:16:52;;;;;;;8.20;1.80;;;24.80;54.60;;;;;;5026979;28;20490;-55
2022/07/25 06:19:17;;;;;;;6.18;1.42;;;24.80;54.60;;;;;;5027826;28;20390;-55
2022/07/25 06:21:43;;;;;;;5.30;1.50;;;24.80;54.60;;;;;;5029058;28;20108;-55
2022/07/25 06:24:09;;;;;;;5.20;1.50;;;24.80;54.60;;;;;;5027518;28;20028;-55
2022/07/25 06:26:37;;;;;;;5.63;1.40;;;24.80;54.60;;;;;;5028203;28;20039;-55
2022/07/25 06:29:02;;;;;;;4.85;1.58;;;24.80;54.60;;;;;;5029128;28;20060;-55
2022/07/25 06:31:28;;;;;;;5.50;1.60;;;24.70;54.60;;;;;;5029295;28;20464;-55
2022/07/25 06:33:54;;;;;;;5.97;1.50;;;24.80;54.60;;;;;;5028487;28;20017;-55
2022/07/25 06:36:19;;;;;;;5.88;1.55;;;24.80;54.60;;;;;;5030056;28;20043;-55
2022/07/25 06:38:45;;;;;;;7.65;1.75;;;24.80;55.70;;;;;;5027918;28;20030;-55
2022/07/25 06:41:14;;;;;;;5.90;1.55;;;24.80;54.60;;;;;;5026985;28;20056;-55
2022/07/25 06:43:40;;;;;;;5.00;1.50;;;24.70;54.60;;;;;;5029976;28;20448;-55
2022/07/25 06:46:06;;;;;;;6.25;1.60;;;24.70;54.60;;;;;;5029680;28;20030;-55
2022/07/25 06:48:31;;;;;;;4.30;1.40;;;24.70;54.60;;;;;;5027690;28;20569;-55
2022/07/25 06:50:57;;;;;;;6.57;1.73;;;24.80;54.60;;;;;;5028741;28;20517;-53
2022/07/25 06:53:22;;;;;;;4.22;1.38;;;24.70;54.60;;;;;;5026341;28;20398;-55
2022/07/25 06:55:48;;;;;;;6.03;1.30;;;24.70;54.60;;;;;;5027724;28;20108;-55
2022/07/25 06:58:14;;;;;;;5.47;1.40;;;24.70;54.60;;;;;;5026174;28;20108;-55
2022/07/25 07:00:39;;;;;;;5.25;1.75;;;24.80;54.60;;;;;;5025327;28;20383;-55
2022/07/25 07:03:05;;;;;;;6.78;1.50;;;24.70;54.50;;;;;;5029634;28;20079;-55
2022/07/25 07:05:32;;;;;;;3.83;1.40;;;24.70;54.60;;;;;;5026695;28;20490;-55
2022/07/25 07:07:58;;;;;;;5.88;1.55;;;24.70;54.50;;;;;;5024621;28;20029;-55
2022/07/25 07:10:24;;;;;;;5.25;1.50;;;24.70;54.50;;;;;;5028025;28;20114;-55
2022/07/25 07:12:49;;;;;;;6.32;1.45;;;24.70;54.50;;;;;;5027715;28;20079;-55
2022/07/25 07:15:15;;;;;;;4.18;1.50;;;24.70;54.60;;;;;;5027217;28;20478;-55
2022/07/25 07:17:41;;;;;;;6.25;1.48;;;24.70;54.50;;;;;;5027411;28;20292;-54
2022/07/25 07:20:07;;;;;;;5.72;1.58;;;24.70;54.50;;;;;;5025878;28;20021;-55
2022/07/25 07:22:45;;;;;;;5.03;1.30;;;24.70;54.60;;;;;;5026754;28;20020;-55
2022/07/25 07:25:15;;;;;;;6.05;1.42;;;24.70;54.50;;;;;;5027788;28;20064;-55
2022/07/25 07:27:41;;;;;;;5.80;1.58;;;24.70;54.40;;;;;;5027608;28;20024;-55
2022/07/25 07:30:07;;;;;;;4.50;1.45;;;24.70;54.40;;;;;;5029224;28;20026;-55
2022/07/25 07:32:33;;;;;;;6.10;1.45;;;24.70;54.50;;;;;;5028278;28;20045;-54
2022/07/25 07:34:58;;;;;;;6.55;1.55;;;24.70;54.40;;;;;;5028390;28;20072;-55
2022/07/25 07:37:24;;;;;;;5.45;1.45;;;24.70;54.30;;;;;;5027692;28;20167;-55
2022/07/25 07:39:50;;;;;;;4.78;1.10;;;24.70;54.30;;;;;;5028916;28;20018;-55
2022/07/25 07:42:15;;;;;;;5.90;1.70;;;24.70;54.20;;;;;;5026846;28;20040;-55
2022/07/25 07:44:41;;;;;;;5.15;1.40;;;24.70;54.20;;;;;;5027938;28;20034;-55
2022/07/25 07:47:06;;;;;;;6.38;1.33;;;24.70;54.20;;;;;;5028000;28;20075;-55
2022/07/25 07:49:32;;;;;;;4.85;1.38;;;24.70;54.10;;;;;;5026665;28;20018;-56
2022/07/25 07:51:58;;;;;;;3.92;1.30;;;24.80;54.10;;;;;;5028547;28;20041;-54
2022/07/25 07:57:08;;;;;;;4.85;1.48;;;24.70;54.10;;;;;;5025870;28;20036;-55
2022/07/25 07:59:33;;;;;;;5.03;1.35;;;24.70;54.00;;;;;;5025676;28;20033;-55
2022/07/25 08:01:59;;;;;;;6.53;1.58;;;24.70;54.00;;;;;;5028209;28;20405;-55
2022/07/25 08:04:25;;;;;;;5.50;1.35;;;24.70;53.90;;;;;;5026296;28;20037;-54
2022/07/25 08:06:50;;;;;;;5.55;1.20;;;24.70;54.00;;;;;;5026381;28;20025;-55
2022/07/25 08:09:16;;;;;;;5.53;1.50;;;24.70;54.00;;;;;;5026522;28;20030;-54
2022/07/25 08:11:41;;;;;;;5.28;1.38;;;24.70;54.00;;;;;;5026239;28;20041;-55
2022/07/25 08:14:07;;;;;;;5.57;1.58;;;24.70;55.00;;;;;;5028089;28;20031;-55
2022/07/25 08:16:33;;;;;;;4.88;1.50;;;24.80;54.00;;;;;;5027771;28;20037;-54
2022/07/25 08:18:58;;;;;;;6.25;1.33;;;24.70;53.90;;;;;;5027737;28;20025;-55
2022/07/25 08:21:24;;;;;;;5.60;1.38;;;24.80;53.90;;;;;;5026941;28;20025;-55
2022/07/25 08:23:50;;;;;;;5.03;1.38;;;24.70;53.80;;;;;;5026661;28;20030;-55
2022/07/25 08:26:15;;;;;;;3.38;1.15;;;24.80;54.00;;;;;;5025697;28;20552;-55
2022/07/25 08:28:41;;;;;;;4.28;1.33;;;24.70;53.90;;;;;;5026066;28;20432;-55
2022/07/25 08:31:07;;;;;;;5.82;1.20;;;24.70;53.80;;;;;;5025622;28;20045;-55
2022/07/25 08:33:32;;;;;;;4.63;1.30;;;24.70;53.80;;;;;;5026552;28;20021;-55
2022/07/25 08:35:58;;;;;;;2.90;1.00;;;24.80;53.80;;;;;;5025140;28;20057;-55
2022/07/25 08:38:25;;;;;;;5.22;1.10;;;24.80;53.80;;;;;;5024880;28;20512;-53
2022/07/25 08:40:51;;;;;;;4.65;1.15;;;24.70;53.70;;;;;;5028175;28;20036;-55
2022/07/25 08:43:17;;;;;;;4.18;1.20;;;24.70;53.70;;;;;;5056907;28;20387;-54
2022/07/25 08:45:53;;;;;;;4.65;1.50;;;24.80;53.80;;;;;;5027061;28;20036;-53
2022/07/25 08:48:20;;;;;;;5.35;1.35;;;24.70;53.70;;;;;;5023983;28;20045;-55
2022/07/25 08:50:46;;;;;;;4.10;1.13;;;24.70;53.80;;;;;;5023895;28;20049;-55
2022/07/25 08:53:12;;;;;;;3.72;1.08;;;24.70;53.70;;;;;;5024120;28;20025;-55
2022/07/25 08:55:38;;;;;;;4.50;1.25;;;24.70;53.60;;;;;;5027639;28;20036;-54
2022/07/25 08:58:04;;;;;;;4.50;1.48;;;24.70;53.70;;;;;;5026310;28;20670;-55
2022/07/25 09:00:29;;;;;;;3.85;1.33;;;24.70;53.60;;;;;;5024507;28;20068;-55
2022/07/25 09:02:56;;;;;;;4.43;1.02;;;24.70;53.60;;;;;;5025917;28;20087;-55
2022/07/25 09:05:23;;;;;;;5.32;1.30;;;24.80;53.70;;;;;;5027764;28;20493;-55
2022/07/25 09:07:49;;;;;;;5.43;1.20;;;24.70;53.60;;;;;;5026332;28;20037;-54
2022/07/25 09:10:20;;;;;;;4.18;1.30;;;24.70;53.50;;;;;;5025048;28;20573;-55
2022/07/25 09:12:58;;;;;;;4.18;1.10;;;24.70;53.50;;;;;;5025501;28;20045;-55
2022/07/25 09:15:28;;;;;;;4.85;1.00;;;24.70;53.50;;;;;;5026680;28;20033;-55
2022/07/25 09:17:58;;;;;;;5.28;1.33;;;24.70;53.50;;;;;;5023661;28;20021;-55
2022/07/25 09:20:24;;;;;;;4.32;1.20;;;24.80;53.50;;;;;;5023708;28;20029;-55
2022/07/25 09:22:49;;;;;;;6.80;1.60;;;24.80;53.40;;;;;;5025302;28;20409;-55
2022/07/25 09:25:26;;;;;;;6.35;1.42;;;24.80;53.40;;;;;;5026694;28;20597;-55
2022/07/25 09:27:51;;;;;;;5.63;1.52;;;24.80;53.40;;;;;;5025916;28;20172;-55
2022/07/25 09:30:17;;;;;;;3.40;1.10;;;24.80;53.40;;;;;;5025553;28;20104;-55
2022/07/25 09:32:43;;;;;;;5.82;1.52;;;24.80;54.50;;;;;;5024376;28;20041;-56
2022/07/25 09:35:09;;;;;;;5.95;1.10;;;24.80;53.50;;;;;;5024771;28;20025;-55
2022/07/25 09:37:34;;;;;;;4.80;1.20;;;24.70;53.50;;;;;;5024328;28;20036;-55
2022/07/25 09:40:00;;;;;;;4.22;1.20;;;24.80;53.60;;;;;;5025158;28;20489;-55
2022/07/25 09:42:31;;;;;;;4.50;1.10;;;24.70;53.50;;;;;;5024202;28;20094;-55
2022/07/25 09:45:10;;;;;;;3.35;1.10;;;24.80;53.50;;;;;;5025070;28;20017;-55
2022/07/25 09:47:36;;;;;;;5.50;1.30;;;24.70;53.50;;;;;;5021074;28;20030;-55
2022/07/25 09:50:03;;;;;;;5.65;1.23;;;24.80;53.60;;;;;;5023622;28;20124;-54
2022/07/25 09:52:30;;;;;;;3.28;1.10;;;24.80;53.50;;;;;;5026405;28;20052;-55
2022/07/25 09:54:56;;;;;;;4.05;1.20;;;24.80;53.50;;;;;;5026173;28;20040;-55
2022/07/25 09:57:24;;;;;;;4.07;0.98;;;24.80;53.50;;;;;;5025426;28;20399;-54
2022/07/25 09:59:50;;;;;;;4.57;1.20;;;24.80;53.50;;;;;;5025228;28;20039;-55
2022/07/25 10:02:49;;;;;;;4.72;1.20;;;24.80;53.50;;;;;;5026155;28;20013;-55
2022/07/25 10:05:31;;;;;;;4.03;1.10;;;24.80;53.50;;;;;;5025207;28;20116;-54
2022/07/25 10:07:56;;;;;;;4.13;1.20;;;24.80;53.40;;;;;;5021612;28;20030;-54
2022/07/25 10:10:29;;;;;;;4.45;1.20;;;24.80;53.50;;;;;;5026113;28;20271;-54
2022/07/25 10:13:02;;;;;;;5.78;1.25;;;24.80;53.50;;;;;;5025649;28;20037;-55
2022/07/25 10:15:48;;;;;;;4.30;1.30;;;24.70;53.50;;;;;;5026563;28;20180;-55
2022/07/25 10:18:15;;;;;;;3.88;1.10;;;24.80;53.50;;;;;;5024393;28;20118;-54
2022/07/25 10:20:41;;;;;;;4.55;1.15;;;24.80;53.40;;;;;;5026112;28;20053;-55
2022/07/25 10:23:26;;;;;;;3.67;1.10;;;24.80;53.40;;;;;;5023293;28;20048;-55
2022/07/25 10:26:02;;;;;;;6.43;1.33;;;24.80;53.40;;;;;;5023506;28;20033;-55
2022/07/25 10:28:44;;;;;;;4.57;1.20;;;24.80;53.40;;;;;;5024867;28;20112;-55
2022/07/25 10:31:33;;;;;;;5.28;1.17;;;24.80;53.30;;;;;;5024473;28;20033;-55
2022/07/25 10:34:00;;;;;;;5.75;1.38;;;24.80;53.40;;;;;;5023014;28;20029;-54
2022/07/25 10:36:28;;;;;;;7.00;1.50;;;24.90;53.30;;;;;;5023052;28;20026;-55
2022/07/25 10:38:59;;;;;;;5.97;1.23;;;24.90;54.30;;;;;;5023767;28;20551;-55
2022/07/25 10:41:25;;;;;;;4.28;1.10;;;24.90;53.30;;;;;;5024616;28;20027;-55
2022/07/25 10:43:51;;;;;;;4.25;1.08;;;24.90;53.30;;;;;;5023842;28;20026;-55
2022/07/25 10:46:21;;;;;;;4.90;1.08;;;24.80;53.40;;;;;;5025977;28;20079;-55
2022/07/25 10:49:08;;;;;;;3.42;0.98;;;24.80;53.40;;;;;;5024792;28;20029;-55
2022/07/25 10:51:35;;;;;;;5.55;1.38;;;24.80;53.50;;;;;;5022245;28;20128;-55
2022/07/25 10:54:12;;;;;;;4.53;1.17;;;24.80;53.40;;;;;;5025127;28;20099;-55
2022/07/25 10:56:37;;;;;;;4.25;1.17;;;24.90;53.30;;;;;;5027942;28;20033;-55
2022/07/25 10:59:03;;;;;;;5.43;1.10;;;24.90;53.20;;;;;;5030388;28;20030;-55
2022/07/25 11:01:34;;;;;;;5.75;1.30;;;24.90;53.30;;;;;;5028447;28;20116;-55
2022/07/25 11:04:12;;;;;;;4.68;1.30;;;24.90;53.40;;;;;;5028173;28;20513;-55
2022/07/25 11:06:39;;;;;;;3.88;1.30;;;24.90;53.30;;;;;;5027157;28;20021;-55
2022/07/25 11:09:17;;;;;;;5.05;1.25;;;24.90;53.10;;;;;;5027281;28;20025;-55
2022/07/25 11:11:47;;;;;;;3.83;1.00;;;24.90;53.20;;;;;;5026789;28;20135;-55
2022/07/25 11:14:16;;;;;;;4.32;0.98;;;24.90;53.20;;;;;;5028624;28;20032;-55
2022/07/25 11:16:45;;;;;;;5.72;1.40;;;24.90;54.20;;;;;;5027498;28;20041;-55
2022/07/25 11:19:25;;;;;;;4.15;1.38;;;25.00;53.10;;;;;;5029491;28;20080;-55
2022/07/25 11:21:54;;;;;;;3.47;0.90;;;25.00;53.00;;;;;;5029371;28;20107;-55
2022/07/25 11:24:20;;;;;;;5.50;1.25;;;25.00;53.00;;;;;;5028926;28;20026;-55
2022/07/25 11:26:50;;;;;;;3.40;1.00;;;25.00;52.90;;;;;;5027008;28;20069;-55
2022/07/25 11:29:25;;;;;;;5.55;1.20;;;25.00;52.90;;;;;;5028569;28;20032;-55
2022/07/25 11:31:56;;;;;;;4.95;1.02;;;25.00;52.90;;;;;;5025358;28;20534;-55
2022/07/25 11:34:24;;;;;;;4.28;1.17;;;25.00;52.90;;;;;;5028234;28;20075;-55
2022/07/25 11:36:50;;;;;;;4.22;1.35;;;25.00;52.90;;;;;;5026468;28;20494;-55
2022/07/25 11:39:16;;;;;;;3.67;1.00;;;25.00;52.90;;;;;;5029265;28;20049;-55
2022/07/25 11:41:42;;;;;;;5.30;1.15;;;25.10;52.90;;;;;;5027494;28;20061;-55
2022/07/25 11:44:08;;;;;;;4.95;1.10;;;25.00;52.80;;;;;;5027399;28;20025;-55
2022/07/25 11:46:42;;;;;;;3.10;0.80;;;25.00;52.80;;;;;;5027197;28;20082;-55
2022/07/25 11:49:08;;;;;;;4.05;1.05;;;25.00;52.90;;;;;;5026215;28;20030;-55
2022/07/25 11:51:37;;;;;;;2.30;0.90;;;25.00;52.90;;;;;;5028836;28;20049;-55
2022/07/25 11:54:07;;;;;;;4.20;1.00;;;25.00;52.90;;;;;;5026030;28;20017;-56
2022/07/25 11:56:37;;;;;;;3.85;0.95;;;25.10;52.90;;;;;;5024025;28;20032;-55
2022/07/25 11:59:03;;;;;;;6.15;1.20;;;25.10;52.90;;;;;;5025410;28;20442;-55
2022/07/25 12:01:38;;;;;;;3.13;0.90;;;25.10;52.80;;;;;;5025467;28;20035;-55
2022/07/25 12:04:13;;;;;;;4.82;1.13;;;25.00;52.80;;;;;;5025553;28;20394;-56
2022/07/25 12:06:39;;;;;;;4.40;1.10;;;25.00;52.80;;;;;;5027066;28;20029;-55
2022/07/25 12:09:13;;;;;;;4.40;1.00;;;25.00;52.80;;;;;;5026352;28;20029;-55
2022/07/25 12:11:38;;;;;;;4.07;1.23;;;25.00;52.80;;;;;;5024767;28;20132;-55
2022/07/25 12:14:04;;;;;;;3.30;0.90;;;25.10;52.80;;;;;;5026033;28;20515;-55
2022/07/25 12:16:31;;;;;;;3.90;1.10;;;25.10;52.70;;;;;;5025769;28;20770;-54
2022/07/25 12:18:56;;;;;;;5.20;1.10;;;25.10;52.70;;;;;;5026867;28;20020;-55
2022/07/25 12:21:22;;;;;;;3.92;1.17;;;25.10;52.60;;;;;;5026995;28;20026;-55
2022/07/25 12:23:48;;;;;;;2.83;0.90;;;25.20;52.60;;;;;;5027649;28;20152;-55
2022/07/25 12:26:13;;;;;;;5.88;1.25;;;25.20;52.60;;;;;;5027186;28;20057;-55
2022/07/25 12:28:39;;;;;;;3.92;1.02;;;25.20;52.50;;;;;;5026173;28;20022;-56
2022/07/25 12:31:05;;;;;;;4.63;1.25;;;25.20;52.40;;;;;;5024950;28;20130;-55
2022/07/25 12:33:31;;;;;;;4.30;1.10;;;25.20;52.40;;;;;;5024434;28;20029;-55
2022/07/25 12:35:58;;;;;;;4.97;1.05;;;25.20;52.40;;;;;;5027420;28;20033;-55
2022/07/25 12:38:24;;;;;;;6.72;1.20;;;25.20;52.30;;;;;;5027105;28;20044;-55
2022/07/25 12:40:49;;;;;;;3.15;0.88;;;25.20;52.30;;;;;;5025487;28;20482;-55
2022/07/25 12:43:15;;;;;;;4.45;1.20;;;25.20;52.30;;;;;;5024584;28;20026;-55
2022/07/25 12:45:41;;;;;;;2.85;0.82;;;25.20;52.30;;;;;;5024199;28;20029;-55
2022/07/25 12:48:07;;;;;;;4.90;1.00;;;25.20;52.20;;;;;;5022256;28;20026;-55
2022/07/25 12:50:33;;;;;;;4.72;1.00;;;25.20;52.20;;;;;;5025959;28;20046;-55